createdAt,value
2024-05-09T00:01:32.980Z,100194.00
2024-05-09T00:02:33.013Z,100195.00
2024-05-09T00:03:32.964Z,100193.00
2024-05-09T00:04:32.988Z,100198.00
2024-05-09T00:05:33.004Z,100197.00
2024-05-09T00:06:33.031Z,100199.00
2024-05-09T00:07:32.988Z,100200.00
2024-05-09T00:08:33.172Z,100194.00
2024-05-09T00:09:32.993Z,100200.00
2024-05-09T00:10:36.761Z,100194.00
2024-05-09T00:11:33.205Z,100195.00
2024-05-09T00:12:33.099Z,100197.00
2024-05-09T00:13:33.064Z,100195.00
2024-05-09T00:14:33.120Z,100195.00
2024-05-09T00:15:33.107Z,100195.00
2024-05-09T00:17:33.233Z,100201.00
2024-05-09T00:18:33.216Z,100200.00
2024-05-09T00:19:33.177Z,100202.00
2024-05-09T00:20:38.439Z,100199.00
2024-05-09T00:21:33.136Z,100201.00
2024-05-09T00:22:33.145Z,100205.00
2024-05-09T00:23:33.271Z,100204.00
2024-05-09T00:24:33.188Z,100204.00
2024-05-09T00:25:33.200Z,100206.00
2024-05-09T00:26:33.254Z,100207.00
2024-05-09T00:27:33.199Z,100202.00
2024-05-09T00:28:33.209Z,100205.00
2024-05-09T00:29:33.267Z,100208.00
2024-05-09T00:30:35.990Z,100207.00
2024-05-09T00:31:33.232Z,100198.00
2024-05-09T00:32:33.426Z,100202.00
2024-05-09T00:33:33.458Z,100200.00
2024-05-09T00:34:33.316Z,100203.00
2024-05-09T00:35:33.424Z,100199.00
2024-05-09T00:36:33.328Z,100204.00
2024-05-09T00:37:33.301Z,100208.00
2024-05-09T00:38:33.423Z,100198.00
2024-05-09T00:39:33.501Z,100210.00
2024-05-09T00:40:38.783Z,100200.00
2024-05-09T00:41:33.407Z,100201.00
2024-05-09T00:42:33.310Z,100201.00
2024-05-09T00:43:33.315Z,100203.00
2024-05-09T00:44:33.372Z,100203.00
2024-05-09T00:45:33.337Z,100202.00
2024-05-09T00:46:33.335Z,100199.00
2024-05-09T00:47:33.549Z,100202.00
2024-05-09T00:48:33.471Z,100204.00
2024-05-09T00:49:33.474Z,100206.00
2024-05-09T00:50:36.546Z,100204.00
2024-05-09T00:51:33.360Z,100202.00
2024-05-09T00:52:33.376Z,100205.00
2024-05-09T00:53:33.611Z,100203.00
2024-05-09T00:54:33.384Z,100202.00
2024-05-09T00:55:33.430Z,100203.00
2024-05-09T00:56:33.476Z,100200.00
2024-05-09T00:57:33.413Z,100202.00
2024-05-09T00:58:33.427Z,100206.00
2024-05-09T00:59:33.573Z,100204.00
2024-05-09T01:00:38.727Z,100203.00
2024-05-09T01:01:33.498Z,100205.00
2024-05-09T01:02:33.517Z,100205.00
2024-05-09T01:03:33.676Z,100203.00
2024-05-09T01:04:33.517Z,100201.00
2024-05-09T01:05:33.571Z,100200.00
2024-05-09T01:06:33.575Z,100199.00
2024-05-09T01:07:33.556Z,100198.00
2024-05-09T01:08:33.841Z,100198.00
2024-05-09T01:09:33.580Z,100198.00
2024-05-09T01:10:35.391Z,100196.00
2024-05-09T01:11:33.820Z,100195.00
2024-05-09T01:12:33.720Z,100199.00
2024-05-09T01:13:33.641Z,100198.00
2024-05-09T01:14:33.689Z,100195.00
2024-05-09T01:15:33.710Z,100202.00
2024-05-09T01:16:33.715Z,100197.00
2024-05-09T01:17:33.983Z,100201.00
2024-05-09T01:18:33.810Z,100202.00
2024-05-09T01:19:33.846Z,100201.00
2024-05-09T01:20:41.085Z,100199.00
2024-05-09T01:21:33.759Z,100203.00
2024-05-09T01:22:33.786Z,100199.00
2024-05-09T01:23:33.932Z,100201.00
2024-05-09T01:24:33.858Z,100199.00
2024-05-09T01:25:33.921Z,100206.00
2024-05-09T01:26:33.970Z,100201.00
2024-05-09T01:27:33.939Z,100205.00
2024-05-09T01:28:33.920Z,100206.00
2024-05-09T01:29:33.986Z,100208.00
2024-05-09T01:30:36.459Z,100204.00
2024-05-09T01:31:33.993Z,100198.00
2024-05-09T01:32:34.085Z,100197.00
2024-05-09T01:33:34.049Z,100198.00
2024-05-09T01:34:33.884Z,100196.00
2024-05-09T01:36:33.910Z,100198.00
2024-05-09T01:38:33.981Z,100201.00
2024-05-09T01:39:33.974Z,100197.00
2024-05-09T01:40:38.366Z,100195.00
2024-05-09T01:41:34.035Z,100195.00
2024-05-09T01:42:34.026Z,100195.00
2024-05-09T01:43:34.046Z,100197.00
2024-05-09T01:44:34.107Z,100195.00
2024-05-09T01:45:34.071Z,100194.00
2024-05-09T01:46:34.064Z,100196.00
2024-05-09T01:48:34.136Z,100195.00
2024-05-09T01:50:39.231Z,100197.00
2024-05-09T01:51:34.154Z,100195.00
2024-05-09T01:52:34.143Z,100195.00
2024-05-09T01:53:36.312Z,100196.00
2024-05-09T01:54:34.171Z,100194.00
2024-05-09T01:55:34.245Z,100192.00
2024-05-09T01:56:34.354Z,100191.00
2024-05-09T01:57:34.215Z,100191.00
2024-05-09T01:58:34.246Z,100190.00
2024-05-09T02:00:39.543Z,100190.00
2024-05-09T02:01:55.518Z,100186.00
2024-05-09T02:02:34.456Z,100186.00
2024-05-09T02:03:34.520Z,100185.00
2024-05-09T02:04:34.456Z,100182.00
2024-05-09T02:05:34.491Z,100184.00
2024-05-09T02:06:34.767Z,100186.00
2024-05-09T02:07:34.361Z,100184.00
2024-05-09T02:08:34.555Z,100187.00
2024-05-09T02:10:34.389Z,100183.00
2024-05-09T02:11:34.499Z,100190.00
2024-05-09T02:12:34.482Z,100188.00
2024-05-09T02:13:34.441Z,100183.00
2024-05-09T02:14:34.531Z,100186.00
2024-05-09T02:15:34.479Z,100187.00
2024-05-09T02:16:34.468Z,100182.00
2024-05-09T02:17:34.678Z,100184.00
2024-05-09T02:18:34.570Z,100188.00
2024-05-09T02:19:34.589Z,100189.00
2024-05-09T02:21:34.585Z,100188.00
2024-05-09T02:22:34.587Z,100188.00
2024-05-09T02:23:34.690Z,100189.00
2024-05-09T02:24:34.602Z,100191.00
2024-05-09T02:25:34.892Z,100183.00
2024-05-09T02:26:34.705Z,100189.00
2024-05-09T02:27:34.620Z,100182.00
2024-05-09T02:29:34.719Z,100176.00
2024-05-09T02:30:39.631Z,100185.00
2024-05-09T02:31:34.676Z,100186.00
2024-05-09T02:32:34.872Z,100184.00
2024-05-09T02:33:34.907Z,100180.00
2024-05-09T02:34:34.666Z,100181.00
2024-05-09T02:35:34.860Z,100185.00
2024-05-09T02:36:34.707Z,100183.00
2024-05-09T02:37:34.761Z,100186.00
2024-05-09T02:38:34.790Z,100187.00
2024-05-09T02:39:34.705Z,100186.00
2024-05-09T02:40:38.002Z,100187.00
2024-05-09T02:41:34.763Z,100187.00
2024-05-09T02:42:34.730Z,100184.00
2024-05-09T02:43:34.747Z,100183.00
2024-05-09T02:44:34.857Z,100180.00
2024-05-09T02:45:34.853Z,100177.00
2024-05-09T02:46:34.803Z,100177.00
2024-05-09T02:47:34.998Z,100178.00
2024-05-09T02:48:34.975Z,100180.00
2024-05-09T02:49:34.932Z,100177.00
2024-05-09T02:50:39.009Z,100177.00
2024-05-09T02:51:34.887Z,100177.00
2024-05-09T02:52:34.894Z,100177.00
2024-05-09T02:53:35.064Z,100178.00
2024-05-09T02:54:34.964Z,100176.00
2024-05-09T02:55:34.943Z,100178.00
2024-05-09T02:56:35.014Z,100178.00
2024-05-09T02:57:34.978Z,100181.00
2024-05-09T02:58:35.018Z,100178.00
2024-05-09T02:59:35.079Z,100183.00
2024-05-09T03:00:39.576Z,100178.00
2024-05-09T03:01:35.262Z,100184.00
2024-05-09T03:02:35.234Z,100182.00
2024-05-09T03:03:35.335Z,100181.00
2024-05-09T03:04:35.220Z,100180.00
2024-05-09T03:05:35.455Z,100183.00
2024-05-09T03:06:35.116Z,100183.00
2024-05-09T03:07:35.143Z,100185.00
2024-05-09T03:08:35.287Z,100179.00
2024-05-09T03:09:35.160Z,100180.00
2024-05-09T03:10:37.433Z,100182.00
2024-05-09T03:11:35.315Z,100186.00
2024-05-09T03:12:37.970Z,100180.00
2024-05-09T03:13:35.242Z,100184.00
2024-05-09T03:14:35.363Z,100183.00
2024-05-09T03:15:35.282Z,100183.00
2024-05-09T03:16:35.319Z,100185.00
2024-05-09T03:17:35.761Z,100185.00
2024-05-09T03:18:36.368Z,100183.00
2024-05-09T03:19:35.397Z,100188.00
2024-05-09T03:20:36.510Z,100187.00
2024-05-09T03:21:35.340Z,100192.00
2024-05-09T03:22:35.342Z,100186.00
2024-05-09T03:23:35.368Z,100188.00
2024-05-09T03:24:35.355Z,100186.00
2024-05-09T03:25:35.371Z,100186.00
2024-05-09T03:26:35.452Z,100188.00
2024-05-09T03:27:35.431Z,100184.00
2024-05-09T03:28:35.399Z,100183.00
2024-05-09T03:29:35.500Z,100183.00
2024-05-09T03:30:40.864Z,100185.00
2024-05-09T03:31:35.581Z,100186.00
2024-05-09T03:32:35.586Z,100183.00
2024-05-09T03:33:35.710Z,100188.00
2024-05-09T03:34:35.538Z,100185.00
2024-05-09T03:35:35.561Z,100188.00
2024-05-09T03:36:35.495Z,100185.00
2024-05-09T03:37:35.514Z,100186.00
2024-05-09T03:38:35.569Z,100182.00
2024-05-09T03:39:35.536Z,100186.00
2024-05-09T03:40:35.583Z,100187.00
2024-05-09T03:41:35.822Z,100185.00
2024-05-09T03:42:35.583Z,100186.00
2024-05-09T03:43:35.589Z,100186.00
2024-05-09T03:44:35.622Z,100186.00
2024-05-09T03:45:35.616Z,100190.00
2024-05-09T03:47:35.864Z,100184.00
2024-05-09T03:48:35.632Z,100189.00
2024-05-09T03:49:35.697Z,100191.00
2024-05-09T03:50:36.844Z,100187.00
2024-05-09T03:51:35.654Z,100186.00
2024-05-09T03:52:35.654Z,100185.00
2024-05-09T03:53:35.776Z,100187.00
2024-05-09T03:54:35.664Z,100185.00
2024-05-09T03:55:35.715Z,100184.00
2024-05-09T03:56:35.806Z,100182.00
2024-05-09T03:57:35.798Z,100183.00
2024-05-09T03:58:35.693Z,100186.00
2024-05-09T03:59:35.733Z,100182.00
2024-05-09T04:00:38.811Z,100188.00
2024-05-09T04:01:35.889Z,100187.00
2024-05-09T04:02:35.795Z,100184.00
2024-05-09T04:03:35.912Z,100187.00
2024-05-09T04:04:35.886Z,100189.00
2024-05-09T04:05:35.994Z,100187.00
2024-05-09T04:06:35.859Z,100187.00
2024-05-09T04:07:35.811Z,100189.00
2024-05-09T04:08:35.944Z,100187.00
2024-05-09T04:09:35.816Z,100188.00
2024-05-09T04:10:36.018Z,100188.00
2024-05-09T04:11:35.955Z,100188.00
2024-05-09T04:12:35.861Z,100189.00
2024-05-09T04:13:35.861Z,100194.00
2024-05-09T04:14:36.031Z,100192.00
2024-05-09T04:15:35.910Z,100194.00
2024-05-09T04:16:35.930Z,100192.00
2024-05-09T04:17:36.369Z,100189.00
2024-05-09T04:18:36.051Z,100194.00
2024-05-09T04:19:36.026Z,100195.00
2024-05-09T04:20:39.408Z,100195.00
2024-05-09T04:21:35.951Z,100194.00
2024-05-09T04:22:35.967Z,100196.00
2024-05-09T04:23:36.176Z,100199.00
2024-05-09T04:24:35.967Z,100201.00
2024-05-09T04:25:36.000Z,100200.00
2024-05-09T04:26:36.031Z,100202.00
2024-05-09T04:27:35.985Z,100201.00
2024-05-09T04:28:36.000Z,100198.00
2024-05-09T04:29:36.050Z,100198.00
2024-05-09T04:30:39.339Z,100205.00
2024-05-09T04:31:36.012Z,100205.00
2024-05-09T04:32:36.301Z,100202.00
2024-05-09T04:34:36.161Z,100204.00
2024-05-09T04:35:36.125Z,100204.00
2024-05-09T04:37:36.076Z,100208.00
2024-05-09T04:38:36.263Z,100208.00
2024-05-09T04:39:36.155Z,100212.00
2024-05-09T04:40:37.418Z,100209.00
2024-05-09T04:41:36.207Z,100208.00
2024-05-09T04:42:36.154Z,100206.00
2024-05-09T04:43:36.155Z,100213.00
2024-05-09T04:44:36.228Z,100210.00
2024-05-09T04:45:36.166Z,100213.00
2024-05-09T04:46:36.220Z,100213.00
2024-05-09T04:47:36.336Z,100212.00
2024-05-09T04:48:36.486Z,100217.00
2024-05-09T04:49:36.313Z,100218.00
2024-05-09T04:50:38.850Z,100216.00
2024-05-09T04:51:36.356Z,100219.00
2024-05-09T04:52:36.319Z,100215.00
2024-05-09T04:53:36.435Z,100216.00
2024-05-09T04:54:36.869Z,100219.00
2024-05-09T04:55:36.397Z,100220.00
2024-05-09T04:56:36.399Z,100215.00
2024-05-09T04:57:36.363Z,100216.00
2024-05-09T04:58:36.360Z,100216.00
2024-05-09T04:59:36.609Z,100213.00
2024-05-09T05:01:36.416Z,100210.00
2024-05-09T05:03:36.530Z,100218.00
2024-05-09T05:04:36.498Z,100214.00
2024-05-09T05:05:36.480Z,100217.00
2024-05-09T05:06:36.458Z,100216.00
2024-05-09T05:07:36.466Z,100221.00
2024-05-09T05:08:36.597Z,100218.00
2024-05-09T05:09:36.493Z,100214.00
2024-05-09T05:10:37.017Z,100218.00
2024-05-09T05:11:36.628Z,100218.00
2024-05-09T05:12:36.549Z,100211.00
2024-05-09T05:13:39.445Z,100225.00
2024-05-09T05:14:36.586Z,100222.00
2024-05-09T05:15:36.548Z,100222.00
2024-05-09T05:16:36.567Z,100221.00
2024-05-09T05:17:36.880Z,100223.00
2024-05-09T05:18:38.904Z,100222.00
2024-05-09T05:19:36.639Z,100226.00
2024-05-09T05:20:36.677Z,100220.00
2024-05-09T05:21:36.622Z,100231.00
2024-05-09T05:22:36.702Z,100235.00
2024-05-09T05:23:36.707Z,100235.00
2024-05-09T05:24:36.691Z,100235.00
2024-05-09T05:25:36.684Z,100238.00
2024-05-09T05:26:36.786Z,100240.00
2024-05-09T05:27:36.714Z,100241.00
2024-05-09T05:28:36.754Z,100245.00
2024-05-09T05:29:36.863Z,100243.00
2024-05-09T05:30:36.753Z,100243.00
2024-05-09T05:31:36.868Z,100244.00
2024-05-09T05:32:37.004Z,100244.00
2024-05-09T05:35:36.927Z,100242.00
2024-05-09T05:36:36.858Z,100238.00
2024-05-09T05:37:36.897Z,100236.00
2024-05-09T05:38:36.939Z,100238.00
2024-05-09T05:39:36.901Z,100234.00
2024-05-09T05:40:38.522Z,100232.00
2024-05-09T05:41:37.014Z,100232.00
2024-05-09T05:42:36.937Z,100229.00
2024-05-09T05:43:37.344Z,100231.00
2024-05-09T05:44:37.007Z,100232.00
2024-05-09T05:45:36.961Z,100232.00
2024-05-09T05:46:37.007Z,100234.00
2024-05-09T05:47:37.147Z,100233.00
2024-05-09T05:48:37.142Z,100236.00
2024-05-09T05:49:37.162Z,100234.00
2024-05-09T05:50:38.467Z,100233.00
2024-05-09T05:51:37.059Z,100237.00
2024-05-09T05:52:37.088Z,100242.00
2024-05-09T05:55:37.095Z,100240.00
2024-05-09T05:56:37.112Z,100239.00
2024-05-09T05:57:37.110Z,100240.00
2024-05-09T05:59:37.176Z,100244.00
2024-05-09T06:00:39.356Z,100247.00
2024-05-09T06:01:37.123Z,100243.00
2024-05-09T06:02:37.229Z,100247.00
2024-05-09T06:03:37.367Z,100247.00
2024-05-09T06:04:37.182Z,100239.00
2024-05-09T06:05:37.601Z,100244.00
2024-05-09T06:06:37.189Z,100245.00
2024-05-09T06:07:37.777Z,100245.00
2024-05-09T06:08:37.230Z,100240.00
2024-05-09T06:09:37.203Z,100241.00
2024-05-09T06:10:39.917Z,100235.00
2024-05-09T06:11:37.276Z,100240.00
2024-05-09T06:12:37.263Z,100235.00
2024-05-09T06:13:37.224Z,100234.00
2024-05-09T06:14:37.317Z,100233.00
2024-05-09T06:15:37.315Z,100233.00
2024-05-09T06:16:37.280Z,100235.00
2024-05-09T06:17:37.441Z,100233.00
2024-05-09T06:18:37.484Z,100234.00
2024-05-09T06:19:37.378Z,100234.00
2024-05-09T06:21:37.356Z,100237.00
2024-05-09T06:22:37.317Z,100236.00
2024-05-09T06:23:37.344Z,100238.00
2024-05-09T06:24:37.329Z,100238.00
2024-05-09T06:25:37.456Z,100237.00
2024-05-09T06:27:37.349Z,100239.00
2024-05-09T06:28:37.361Z,100240.00
2024-05-09T06:29:37.388Z,100241.00
2024-05-09T06:31:37.392Z,100239.00
2024-05-09T06:33:37.603Z,100244.00
2024-05-09T06:34:37.473Z,100239.00
2024-05-09T06:35:37.547Z,100244.00
2024-05-09T06:36:37.484Z,100245.00
2024-05-09T06:37:37.473Z,100246.00
2024-05-09T06:39:37.436Z,100243.00
2024-05-09T06:40:39.696Z,100248.00
2024-05-09T06:42:37.451Z,100242.00
2024-05-09T06:43:37.470Z,100243.00
2024-05-09T06:45:37.555Z,100240.00
2024-05-09T06:46:37.482Z,100244.00
2024-05-09T06:47:37.654Z,100243.00
2024-05-09T06:48:37.783Z,100239.00
2024-05-09T06:49:37.564Z,100241.00
2024-05-09T06:50:39.230Z,100241.00
2024-05-09T06:51:37.516Z,100234.00
2024-05-09T06:52:37.522Z,100241.00
2024-05-09T06:53:37.739Z,100240.00
2024-05-09T06:54:37.552Z,100241.00
2024-05-09T06:55:38.104Z,100243.00
2024-05-09T06:56:37.624Z,100246.00
2024-05-09T06:57:39.176Z,100251.00
2024-05-09T06:59:37.626Z,100248.00
2024-05-09T07:00:40.204Z,100246.00
2024-05-09T07:01:37.608Z,100249.00
2024-05-09T07:02:37.785Z,100244.00
2024-05-09T07:03:37.693Z,100243.00
2024-05-09T07:04:37.842Z,100240.00
2024-05-09T07:05:37.675Z,100240.00
2024-05-09T07:06:37.624Z,100248.00
2024-05-09T07:07:37.627Z,100246.00
2024-05-09T07:09:37.631Z,100249.00
2024-05-09T07:10:38.065Z,100245.00
2024-05-09T07:11:37.781Z,100247.00
2024-05-09T07:12:37.654Z,100245.00
2024-05-09T07:13:37.719Z,100244.00
2024-05-09T07:14:38.601Z,100243.00
2024-05-09T07:15:37.676Z,100243.00
2024-05-09T07:16:37.709Z,100242.00
2024-05-09T07:17:37.928Z,100239.00
2024-05-09T07:18:37.918Z,100240.00
2024-05-09T07:19:37.984Z,100239.00
2024-05-09T07:20:37.960Z,100240.00
2024-05-09T07:21:37.818Z,100243.00
2024-05-09T07:22:37.851Z,100239.00
2024-05-09T07:23:38.018Z,100239.00
2024-05-09T07:24:37.851Z,100233.00
2024-05-09T07:25:37.864Z,100241.00
2024-05-09T07:26:38.030Z,100239.00
2024-05-09T07:27:37.880Z,100236.00
2024-05-09T07:28:37.956Z,100237.00
2024-05-09T07:29:38.787Z,100230.00
2024-05-09T07:30:38.876Z,100237.00
2024-05-09T07:31:38.816Z,100229.00
2024-05-09T07:32:38.189Z,100230.00
2024-05-09T07:33:38.062Z,100226.00
2024-05-09T07:34:38.060Z,100233.00
2024-05-09T07:35:38.044Z,100234.00
2024-05-09T07:36:38.001Z,100233.00
2024-05-09T07:37:37.989Z,100227.00
2024-05-09T07:38:38.139Z,100227.00
2024-05-09T07:39:38.003Z,100234.00
2024-05-09T07:40:38.875Z,100226.00
2024-05-09T07:41:38.063Z,100229.00
2024-05-09T07:42:38.028Z,100233.00
2024-05-09T07:43:38.029Z,100235.00
2024-05-09T07:44:38.132Z,100226.00
2024-05-09T07:45:48.518Z,100229.00
2024-05-09T07:47:47.301Z,100235.00
2024-05-09T07:48:58.046Z,100233.00
2024-05-09T07:53:14.265Z,100220.00
2024-05-09T07:53:43.757Z,100227.00
2024-05-09T07:54:38.337Z,100231.00
2024-05-09T07:55:38.332Z,100230.00
2024-05-09T07:56:38.614Z,100230.00
2024-05-09T07:58:38.239Z,100227.00
2024-05-09T07:59:38.323Z,100229.00
2024-05-09T08:00:38.375Z,100225.00
2024-05-09T08:01:38.332Z,100230.00
2024-05-09T08:02:38.339Z,100227.00
2024-05-09T08:03:38.517Z,100227.00
2024-05-09T08:04:38.513Z,100226.00
2024-05-09T08:05:38.430Z,100226.00
2024-05-09T08:06:38.440Z,100227.00
2024-05-09T08:07:38.435Z,100227.00
2024-05-09T08:08:38.425Z,100227.00
2024-05-09T08:09:38.769Z,100223.00
2024-05-09T08:10:38.472Z,100224.00
2024-05-09T08:11:39.387Z,100219.00
2024-05-09T08:13:38.411Z,100218.00
2024-05-09T08:15:38.444Z,100218.00
2024-05-09T08:16:38.469Z,100211.00
2024-05-09T08:17:38.618Z,100216.00
2024-05-09T08:18:38.664Z,100215.00
2024-05-09T08:19:38.608Z,100219.00
2024-05-09T08:20:38.524Z,100216.00
2024-05-09T08:21:38.585Z,100218.00
2024-05-09T08:22:38.915Z,100213.00
2024-05-09T08:23:38.822Z,100207.00
2024-05-09T08:24:38.580Z,100209.00
2024-05-09T08:25:38.629Z,100205.00
2024-05-09T08:26:38.651Z,100205.00
2024-05-09T08:27:38.590Z,100205.00
2024-05-09T08:28:38.644Z,100200.00
2024-05-09T08:29:38.589Z,100208.00
2024-05-09T08:30:38.746Z,100204.00
2024-05-09T08:31:38.729Z,100199.00
2024-05-09T08:32:38.671Z,100204.00
2024-05-09T08:33:38.879Z,100204.00
2024-05-09T08:34:38.658Z,100203.00
2024-05-09T08:35:38.658Z,100203.00
2024-05-09T08:36:38.746Z,100208.00
2024-05-09T08:37:40.623Z,100206.00
2024-05-09T08:38:38.603Z,100207.00
2024-05-09T08:39:38.684Z,100209.00
2024-05-09T08:40:39.000Z,100205.00
2024-05-09T08:41:39.385Z,100208.00
2024-05-09T08:42:38.712Z,100202.00
2024-05-09T08:43:40.660Z,100209.00
2024-05-09T08:44:38.650Z,100202.00
2024-05-09T08:45:38.851Z,100199.00
2024-05-09T08:46:38.705Z,100199.00
2024-05-09T08:47:38.757Z,100202.00
2024-05-09T08:48:38.845Z,100204.00
2024-05-09T08:49:40.835Z,100200.00
2024-05-09T08:50:40.026Z,100198.00
2024-05-09T08:51:38.703Z,100195.00
2024-05-09T08:52:38.650Z,100201.00
2024-05-09T08:54:38.697Z,100200.00
2024-05-09T08:55:41.804Z,100197.00
2024-05-09T08:56:38.704Z,100191.00
2024-05-09T08:57:38.742Z,100197.00
2024-05-09T08:58:38.730Z,100198.00
2024-05-09T08:59:38.697Z,100201.00
2024-05-09T09:00:39.040Z,100199.00
2024-05-09T09:01:40.104Z,100195.00
2024-05-09T09:02:38.925Z,100197.00
2024-05-09T09:03:39.119Z,100196.00
2024-05-09T09:04:38.917Z,100198.00
2024-05-09T09:05:39.304Z,100196.00
2024-05-09T09:06:38.861Z,100197.00
2024-05-09T09:07:38.837Z,100195.00
2024-05-09T09:08:38.821Z,100196.00
2024-05-09T09:09:38.875Z,100193.00
2024-05-09T09:10:38.941Z,100193.00
2024-05-09T09:11:38.945Z,100195.00
2024-05-09T09:12:38.899Z,100197.00
2024-05-09T09:13:38.917Z,100198.00
2024-05-09T09:14:38.895Z,100192.00
2024-05-09T09:15:38.961Z,100193.00
2024-05-09T09:16:38.907Z,100190.00
2024-05-09T09:17:38.983Z,100188.00
2024-05-09T09:18:39.405Z,100193.00
2024-05-09T09:19:39.201Z,100193.00
2024-05-09T09:20:38.995Z,100192.00
2024-05-09T09:22:38.979Z,100195.00
2024-05-09T09:23:39.083Z,100196.00
2024-05-09T09:24:39.046Z,100192.00
2024-05-09T09:25:39.065Z,100187.00
2024-05-09T09:26:39.079Z,100183.00
2024-05-09T09:28:39.138Z,100180.00
2024-05-09T09:29:39.088Z,100184.00
2024-05-09T09:30:39.258Z,100182.00
2024-05-09T09:31:39.158Z,100180.00
2024-05-09T09:32:39.222Z,100184.00
2024-05-09T09:33:39.283Z,100180.00
2024-05-09T09:35:39.211Z,100184.00
2024-05-09T09:36:39.257Z,100178.00
2024-05-09T09:38:39.187Z,100181.00
2024-05-09T09:39:39.245Z,100181.00
2024-05-09T09:40:44.514Z,100188.00
2024-05-09T09:41:39.214Z,100182.00
2024-05-09T09:42:39.206Z,100184.00
2024-05-09T09:43:39.222Z,100177.00
2024-05-09T09:44:42.134Z,100177.00
2024-05-09T09:45:39.381Z,100180.00
2024-05-09T09:46:39.320Z,100178.00
2024-05-09T09:47:39.350Z,100176.00
2024-05-09T09:48:39.507Z,100175.00
2024-05-09T09:49:39.596Z,100173.00
2024-05-09T09:50:39.307Z,100175.00
2024-05-09T09:51:39.308Z,100177.00
2024-05-09T09:52:39.319Z,100172.00
2024-05-09T09:53:39.375Z,100172.00
2024-05-09T09:55:39.377Z,100171.00
2024-05-09T09:56:39.389Z,100174.00
2024-05-09T09:57:39.374Z,100175.00
2024-05-09T09:58:39.402Z,100169.00
2024-05-09T09:59:39.392Z,100168.00
2024-05-09T10:00:39.645Z,100167.00
2024-05-09T10:01:39.480Z,100165.00
2024-05-09T10:02:39.489Z,100174.00
2024-05-09T10:03:39.766Z,100180.00
2024-05-09T10:04:39.538Z,100176.00
2024-05-09T10:05:42.155Z,100168.00
2024-05-09T10:06:39.542Z,100174.00
2024-05-09T10:07:40.409Z,100171.00
2024-05-09T10:08:39.514Z,100169.00
2024-05-09T10:09:39.603Z,100168.00
2024-05-09T10:10:39.794Z,100170.00
2024-05-09T10:11:45.275Z,100172.00
2024-05-09T10:12:39.693Z,100174.00
2024-05-09T10:13:39.645Z,100170.00
2024-05-09T10:14:39.663Z,100172.00
2024-05-09T10:15:39.694Z,100169.00
2024-05-09T10:16:39.661Z,100166.00
2024-05-09T10:17:39.753Z,100171.00
2024-05-09T10:18:39.996Z,100167.00
2024-05-09T10:19:39.784Z,100163.00
2024-05-09T10:21:39.776Z,100164.00
2024-05-09T10:22:39.739Z,100165.00
2024-05-09T10:23:39.765Z,100166.00
2024-05-09T10:24:39.806Z,100162.00
2024-05-09T10:25:39.775Z,100161.00
2024-05-09T10:26:39.783Z,100159.00
2024-05-09T10:27:39.817Z,100160.00
2024-05-09T10:29:39.803Z,100155.00
2024-05-09T10:30:40.706Z,100153.00
2024-05-09T10:31:39.923Z,100151.00
2024-05-09T10:33:40.161Z,100153.00
2024-05-09T10:34:39.841Z,100150.00
2024-05-09T10:36:39.959Z,100148.00
2024-05-09T10:37:39.962Z,100151.00
2024-05-09T10:38:39.819Z,100148.00
2024-05-09T10:39:39.966Z,100152.00
2024-05-09T10:40:40.224Z,100146.00
2024-05-09T10:41:39.887Z,100149.00
2024-05-09T10:42:39.912Z,100145.00
2024-05-09T10:43:39.858Z,100151.00
2024-05-09T10:45:39.878Z,100145.00
2024-05-09T10:46:39.957Z,100142.00
2024-05-09T10:47:39.978Z,100144.00
2024-05-09T10:48:40.121Z,100141.00
2024-05-09T10:49:40.036Z,100138.00
2024-05-09T10:50:39.952Z,100136.00
2024-05-09T10:51:40.033Z,100139.00
2024-05-09T10:52:39.994Z,100138.00
2024-05-09T10:53:40.016Z,100132.00
2024-05-09T10:54:40.104Z,100136.00
2024-05-09T10:55:40.006Z,100134.00
2024-05-09T10:56:40.038Z,100128.00
2024-05-09T10:57:40.078Z,100128.00
2024-05-09T10:58:40.066Z,100129.00
2024-05-09T10:59:40.061Z,100134.00
2024-05-09T11:00:40.149Z,100134.00
2024-05-09T11:01:40.146Z,100129.00
2024-05-09T11:02:40.166Z,100133.00
2024-05-09T11:03:40.477Z,100125.00
2024-05-09T11:04:40.186Z,100128.00
2024-05-09T11:05:40.197Z,100129.00
2024-05-09T11:06:40.231Z,100128.00
2024-05-09T11:07:40.195Z,100133.00
2024-05-09T11:08:40.199Z,100130.00
2024-05-09T11:09:40.214Z,100127.00
2024-05-09T11:10:40.319Z,100126.00
2024-05-09T11:11:40.361Z,100122.00
2024-05-09T11:12:40.245Z,100119.00
2024-05-09T11:13:40.227Z,100121.00
2024-05-09T11:14:40.200Z,100122.00
2024-05-09T11:15:40.290Z,100119.00
2024-05-09T11:16:40.264Z,100120.00
2024-05-09T11:17:40.362Z,100117.00
2024-05-09T11:18:40.552Z,100116.00
2024-05-09T11:19:40.399Z,100112.00
2024-05-09T11:20:40.289Z,100113.00
2024-05-09T11:21:40.393Z,100118.00
2024-05-09T11:22:40.292Z,100119.00
2024-05-09T11:23:40.354Z,100117.00
2024-05-09T11:24:40.342Z,100117.00
2024-05-09T11:25:40.312Z,100115.00
2024-05-09T11:26:40.354Z,100114.00
2024-05-09T11:27:40.483Z,100112.00
2024-05-09T11:28:40.947Z,100110.00
2024-05-09T11:29:40.369Z,100107.00
2024-05-09T11:30:40.415Z,100113.00
2024-05-09T11:31:40.471Z,100108.00
2024-05-09T11:32:40.593Z,100111.00
2024-05-09T11:33:40.666Z,100100.00
2024-05-09T11:34:40.507Z,100104.00
2024-05-09T11:35:40.483Z,100105.00
2024-05-09T11:36:40.567Z,100104.00
2024-05-09T11:37:40.521Z,100100.00
2024-05-09T11:38:40.555Z,100100.00
2024-05-09T11:39:40.568Z,100100.00
2024-05-09T11:41:40.487Z,100098.00
2024-05-09T11:42:40.544Z,100095.00
2024-05-09T11:43:40.559Z,100099.00
2024-05-09T11:44:40.565Z,100100.00
2024-05-09T11:45:40.594Z,100098.00
2024-05-09T11:46:40.554Z,100094.00
2024-05-09T11:47:40.656Z,100101.00
2024-05-09T11:48:40.892Z,100093.00
2024-05-09T11:49:40.664Z,100090.00
2024-05-09T11:50:40.651Z,100090.00
2024-05-09T11:51:40.661Z,100090.00
2024-05-09T11:52:40.646Z,100089.00
2024-05-09T11:53:40.649Z,100083.00
2024-05-09T11:54:40.690Z,100082.00
2024-05-09T11:55:40.666Z,100083.00
2024-05-09T11:56:40.665Z,100080.00
2024-05-09T11:57:40.700Z,100082.00
2024-05-09T11:58:40.669Z,100073.00
2024-05-09T11:59:40.641Z,100071.00
2024-05-09T12:00:40.761Z,100073.00
2024-05-09T12:01:40.716Z,100075.00
2024-05-09T12:02:40.695Z,100069.00
2024-05-09T12:03:40.789Z,100073.00
2024-05-09T12:04:40.875Z,100074.00
2024-05-09T12:05:40.999Z,100076.00
2024-05-09T12:06:40.848Z,100079.00
2024-05-09T12:07:40.799Z,100073.00
2024-05-09T12:08:40.935Z,100071.00
2024-05-09T12:09:40.862Z,100075.00
2024-05-09T12:10:41.009Z,100074.00
2024-05-09T12:11:40.869Z,100074.00
2024-05-09T12:12:40.860Z,100072.00